Time;durP1;ratioP1;P1;durP2;ratioP2;P2;SDS_P1;SDS_P2;PMS_P1;PMS_P2;Temp;Humidity;BMP_temperature;BMP_pressure;BME280_temperature;BME280_humidity;BME280_pressure;Samples;Min_cycle;Max_cycle;Signal;HPM_P1;HPM_P2
2023/03/24 00:01:51;;;;;;;4.40;1.40;;;;;;;;;;4952264;28;92528;-79
2023/03/24 00:04:17;;;;;;;4.60;1.30;;;;;;;;;;4953465;28;92485;-78
2023/03/24 00:06:44;;;;;;;3.25;1.20;;;;;;;;;;4957910;28;92810;-78
2023/03/24 00:09:10;;;;;;;4.18;1.30;;;;;;;;;;4957879;28;92053;-78
2023/03/24 00:11:37;;;;;;;3.33;1.50;;;;;;;;;;4953076;28;92581;-79
2023/03/24 00:14:03;;;;;;;5.03;1.70;;;;;;;;;;4985143;28;95445;-80
2023/03/24 00:16:33;;;;;;;3.95;1.55;;;;;;;;;;4973374;28;94578;-78
2023/03/24 00:19:00;;;;;;;4.75;1.52;;;;;;;;;;4957206;28;93128;-78
2023/03/24 00:21:26;;;;;;;5.28;1.50;;;;;;;;;;4970352;28;92694;-78
2023/03/24 00:23:54;;;;;;;5.80;1.50;;;;;;;;;;4956163;28;94987;-78
2023/03/24 00:26:20;;;;;;;;;;;;;;;;;;4966006;28;94063;-78
2023/03/24 00:28:48;;;;;;;5.25;1.50;;;;;;;;;;4979944;28;92934;-78
2023/03/24 00:31:15;;;;;;;5.05;1.45;;;;;;;;;;4976317;28;94371;-79
2023/03/24 00:33:42;;;;;;;4.50;1.65;;;;;;;;;;4975705;28;94983;-79
2023/03/24 00:36:13;;;;;;;4.45;1.35;;;;;;;;;;4995705;28;92588;-79
2023/03/24 00:38:40;;;;;;;5.45;1.40;;;;;;;;;;4975856;28;92709;-78
2023/03/24 00:41:07;;;;;;;3.75;1.27;;;;;;;;;;4977011;28;91851;-77
2023/03/24 00:43:34;;;;;;;6.07;1.48;;;;;;;;;;5008565;28;94551;-78
2023/03/24 00:46:04;;;;;;;3.78;1.48;;;;;;;;;;4976305;28;95321;-77
2023/03/24 00:48:33;;;;;;;5.78;1.40;;;;;;;;;;4974312;28;94679;-79
2023/03/24 00:51:01;;;;;;;3.63;1.38;;;;;;;;;;4963899;28;96518;-79
2023/03/24 00:53:28;;;;;;;3.60;1.25;;;;;;;;;;4974856;28;92470;-79
2023/03/24 00:55:55;;;;;;;4.95;1.30;;;;;;;;;;5013276;28;92190;-79
2023/03/24 00:58:21;;;;;;;4.07;1.55;;;;;;;;;;4977565;28;93045;-79
2023/03/24 01:00:55;;;;;;;3.03;1.20;;;;;;;;;;4977488;28;92646;-79
2023/03/24 01:03:26;;;;;;;8.50;1.60;;;;;;;;;;4976003;28;92507;-78
2023/03/24 01:05:57;;;;;;;9.45;1.67;;;;;;;;;;5010534;28;92916;-80
2023/03/24 01:08:24;;;;;;;10.63;1.77;;;;;;;;;;4992607;28;92787;-80
2023/03/24 01:10:54;;;;;;;6.30;1.27;;;;;;;;;;4977376;28;93764;-80
2023/03/24 01:13:22;;;;;;;4.35;1.33;;;;;;;;;;4973997;28;95472;-79
2023/03/24 01:15:49;;;;;;;3.88;1.30;;;;;;;;;;4977750;28;92286;-78
2023/03/24 01:18:15;;;;;;;5.13;1.40;;;;;;;;;;4980419;28;92650;-78
2023/03/24 01:20:47;;;;;;;4.22;1.38;;;;;;;;;;4977688;28;92428;-79
2023/03/24 01:23:18;;;;;;;3.63;1.30;;;;;;;;;;4977300;28;93665;-79
2023/03/24 01:25:47;;;;;;;3.42;1.50;;;;;;;;;;4991576;28;95123;-78
2023/03/24 01:28:17;;;;;;;3.67;1.45;;;;;;;;;;4977509;28;92484;-79
2023/03/24 01:30:44;;;;;;;4.22;1.60;;;;;;;;;;4977992;28;92881;-79
2023/03/24 01:33:11;;;;;;;7.32;1.70;;;;;;;;;;4991931;28;93877;-78
2023/03/24 01:35:37;;;;;;;9.30;1.40;;;;;;;;;;4974856;28;92551;-78
2023/03/24 01:38:06;;;;;;;6.00;1.65;;;;;;;;;;4971348;28;95248;-78
2023/03/24 01:40:33;;;;;;;4.88;1.75;;;;;;;;;;4980100;28;93159;-77
2023/03/24 01:43:00;;;;;;;6.22;1.55;;;;;;;;;;4976187;28;93377;-78
2023/03/24 01:45:35;;;;;;;4.18;1.70;;;;;;;;;;5008087;28;95388;-78
2023/03/24 01:48:02;;;;;;;4.75;1.55;;;;;;;;;;4975017;28;92037;-78
2023/03/24 01:50:30;;;;;;;5.13;1.80;;;;;;;;;;4985528;28;93639;-79
2023/03/24 01:52:57;;;;;;;7.05;1.80;;;;;;;;;;4973117;28;92740;-78
2023/03/24 01:55:23;;;;;;;4.07;1.60;;;;;;;;;;4975483;28;91599;-78
2023/03/24 01:57:54;;;;;;;3.83;1.40;;;;;;;;;;4975023;28;95396;-79
2023/03/24 02:00:24;;;;;;;4.60;1.60;;;;;;;;;;4975280;28;92422;-78
2023/03/24 02:03:13;;;;;;;6.15;1.45;;;;;;;;;;4970303;28;94828;-79
2023/03/24 02:05:48;;;;;;;4.50;1.50;;;;;;;;;;4995299;28;97150;-78
2023/03/24 02:08:27;;;;;;;3.58;1.20;;;;;;;;;;4980300;28;92168;-79
2023/03/24 02:10:54;;;;;;;3.58;1.70;;;;;;;;;;4995711;28;95463;-79
2023/03/24 02:13:26;;;;;;;5.80;1.60;;;;;;;;;;4995180;28;95070;-79
2023/03/24 02:16:11;;;;;;;3.70;1.50;;;;;;;;;;4979492;28;92349;-80
2023/03/24 02:18:58;;;;;;;3.17;1.40;;;;;;;;;;4986503;28;92585;-79
2023/03/24 02:21:27;;;;;;;7.72;1.60;;;;;;;;;;5009949;28;91992;-79
2023/03/24 02:23:54;;;;;;;3.58;1.55;;;;;;;;;;4976404;28;92336;-80
2023/03/24 02:26:25;;;;;;;5.70;1.50;;;;;;;;;;4982242;28;92537;-80
2023/03/24 02:28:54;;;;;;;4.53;1.55;;;;;;;;;;4978433;28;94821;-77
2023/03/24 02:31:33;;;;;;;4.18;1.40;;;;;;;;;;5011452;28;97624;-79
2023/03/24 02:34:08;;;;;;;4.78;1.35;;;;;;;;;;4968764;28;95171;-78
2023/03/24 02:36:50;;;;;;;3.70;1.48;;;;;;;;;;4977345;28;92491;-78
2023/03/24 02:39:41;;;;;;;4.22;1.40;;;;;;;;;;4978233;28;95590;-79
2023/03/24 02:42:26;;;;;;;5.20;1.63;;;;;;;;;;4969737;28;97530;-78
2023/03/24 02:44:56;;;;;;;2.72;1.38;;;;;;;;;;4979563;28;92977;-79
2023/03/24 02:47:34;;;;;;;4.68;1.40;;;;;;;;;;4997628;28;92693;-79
2023/03/24 02:50:24;;;;;;;7.28;1.48;;;;;;;;;;4978396;28;92613;-79
2023/03/24 02:52:58;;;;;;;4.18;1.50;;;;;;;;;;4979513;28;92396;-79
2023/03/24 02:55:34;;;;;;;3.45;1.30;;;;;;;;;;4970582;28;95802;-79
2023/03/24 02:58:12;;;;;;;5.85;1.48;;;;;;;;;;4978910;28;92326;-79
2023/03/24 03:00:52;;;;;;;3.83;1.30;;;;;;;;;;4974009;28;92436;-79
2023/03/24 03:03:47;;;;;;;3.55;1.40;;;;;;;;;;4993423;28;94259;-80
2023/03/24 03:06:16;;;;;;;2.67;1.20;;;;;;;;;;4977943;28;92649;-80
2023/03/24 03:08:46;;;;;;;3.22;1.58;;;;;;;;;;4979079;28;92590;-80
2023/03/24 03:11:14;;;;;;;2.95;1.25;;;;;;;;;;4982175;28;92807;-79
2023/03/24 03:13:44;;;;;;;5.38;1.40;;;;;;;;;;4978584;28;93007;-79
2023/03/24 03:16:17;;;;;;;3.83;1.50;;;;;;;;;;4975494;28;95410;-79
2023/03/24 03:18:50;;;;;;;3.65;1.20;;;;;;;;;;4978759;28;92985;-78
2023/03/24 03:21:18;;;;;;;3.58;1.30;;;;;;;;;;4978080;28;94371;-79
2023/03/24 03:24:05;;;;;;;3.22;1.23;;;;;;;;;;4974394;28;93525;-79
2023/03/24 03:26:33;;;;;;;3.08;1.35;;;;;;;;;;4977548;28;92448;-79
2023/03/24 03:29:05;;;;;;;3.53;1.20;;;;;;;;;;5010796;28;93316;-79
2023/03/24 03:31:33;;;;;;;2.67;1.50;;;;;;;;;;4976744;28;95227;-79
2023/03/24 03:34:15;;;;;;;4.50;1.20;;;;;;;;;;4996947;28;92272;-79
2023/03/24 03:36:56;;;;;;;4.90;1.50;;;;;;;;;;4974403;28;93063;-78
2023/03/24 03:39:31;;;;;;;3.92;1.20;;;;;;;;;;4966233;28;92045;-79
2023/03/24 03:42:03;;;;;;;4.15;1.23;;;;;;;;;;4977762;28;94271;-79
2023/03/24 03:44:30;;;;;;;4.28;1.20;;;;;;;;;;4977149;28;95570;-79
2023/03/24 03:46:56;;;;;;;4.20;1.33;;;;;;;;;;5008696;28;94716;-79
2023/03/24 03:49:35;;;;;;;3.75;1.13;;;;;;;;;;4991540;28;95712;-80
2023/03/24 03:52:02;;;;;;;3.22;1.30;;;;;;;;;;5010362;28;94893;-79
2023/03/24 03:54:30;;;;;;;6.22;1.20;;;;;;;;;;4977137;28;92340;-79
2023/03/24 03:56:58;;;;;;;3.80;1.38;;;;;;;;;;4973395;28;95107;-79
2023/03/24 03:59:28;;;;;;;4.47;1.10;;;;;;;;;;4973571;28;93000;-79
2023/03/24 04:01:57;;;;;;;4.57;1.20;;;;;;;;;;5007118;28;94456;-80
2023/03/24 04:04:55;;;;;;;5.30;1.25;;;;;;;;;;4992126;28;91948;-79
2023/03/24 04:07:50;;;;;;;8.25;1.50;;;;;;;;;;5009474;28;92208;-79
2023/03/24 04:10:52;;;;;;;4.28;1.08;;;;;;;;;;5004867;28;92704;-79
2023/03/24 04:13:34;;;;;;;5.43;1.30;;;;;;;;;;5008435;28;96607;-79
2023/03/24 04:16:51;;;;;;;5.72;1.40;;;;;;;;;;4966324;28;92666;-77
2023/03/24 04:19:47;;;;;;;4.75;1.30;;;;;;;;;;4975947;28;94891;-77
2023/03/24 04:22:26;;;;;;;8.30;1.67;;;;;;;;;;4980907;28;93782;-78
2023/03/24 04:25:11;;;;;;;6.75;1.48;;;;;;;;;;4968679;28;94810;-78
2023/03/24 04:27:45;;;;;;;5.72;1.35;;;;;;;;;;4971580;28;95528;-79
2023/03/24 04:30:22;;;;;;;4.63;1.10;;;;;;;;;;4977041;28;92355;-78
2023/03/24 04:32:53;;;;;;;6.57;1.20;;;;;;;;;;4961126;28;92434;-78
2023/03/24 04:35:30;;;;;;;8.05;1.30;;;;;;;;;;4975364;28;94935;-78
2023/03/24 04:38:22;;;;;;;3.30;1.10;;;;;;;;;;4974851;28;93401;-78
2023/03/24 04:40:56;;;;;;;4.55;1.27;;;;;;;;;;4984443;28;95144;-78
2023/03/24 04:43:26;;;;;;;4.28;1.30;;;;;;;;;;4975530;28;95240;-79
2023/03/24 04:45:56;;;;;;;5.60;1.40;;;;;;;;;;4980963;28;92302;-79
2023/03/24 04:48:30;;;;;;;5.82;1.50;;;;;;;;;;5009154;28;95438;-79
2023/03/24 04:51:00;;;;;;;9.10;1.30;;;;;;;;;;4977834;28;92699;-78
2023/03/24 04:53:36;;;;;;;5.53;1.20;;;;;;;;;;4975639;28;93438;-78
2023/03/24 04:56:21;;;;;;;6.45;1.20;;;;;;;;;;4977608;28;94894;-79
2023/03/24 04:58:58;;;;;;;6.35;1.70;;;;;;;;;;4972937;28;91664;-79
2023/03/24 05:01:29;;;;;;;6.72;1.60;;;;;;;;;;4975372;28;93672;-79
2023/03/24 05:04:19;;;;;;;7.13;1.52;;;;;;;;;;4965277;28;93817;-79
2023/03/24 05:06:48;;;;;;;6.47;1.30;;;;;;;;;;4980169;28;96090;-79
2023/03/24 05:09:20;;;;;;;5.32;1.20;;;;;;;;;;4976494;28;95009;-79
2023/03/24 05:11:47;;;;;;;5.70;1.33;;;;;;;;;;5009149;28;93940;-79
2023/03/24 05:14:14;;;;;;;6.93;1.50;;;;;;;;;;4976727;28;94793;-79
2023/03/24 05:16:41;;;;;;;6.10;1.30;;;;;;;;;;4959658;28;95417;-79
2023/03/24 05:19:08;;;;;;;8.00;1.40;;;;;;;;;;4976886;28;92522;-79
2023/03/24 05:21:34;;;;;;;7.88;1.48;;;;;;;;;;4967282;28;93315;-79
2023/03/24 05:24:02;;;;;;;7.80;1.40;;;;;;;;;;4972786;28;94640;-79
2023/03/24 05:26:29;;;;;;;8.13;1.55;;;;;;;;;;4976014;28;92859;-79
2023/03/24 05:29:19;;;;;;;6.95;1.45;;;;;;;;;;4980328;28;93964;-80
2023/03/24 05:31:45;;;;;;;7.38;1.70;;;;;;;;;;4989148;28;94651;-80
2023/03/24 05:34:21;;;;;;;9.65;1.58;;;;;;;;;;4978282;28;94737;-80
2023/03/24 05:37:01;;;;;;;7.72;1.52;;;;;;;;;;5011488;28;93730;-80
2023/03/24 05:39:27;;;;;;;7.93;1.60;;;;;;;;;;4979127;28;92582;-81
2023/03/24 05:42:01;;;;;;;10.02;1.80;;;;;;;;;;4978650;28;93044;-79
2023/03/24 05:44:27;;;;;;;6.88;1.55;;;;;;;;;;4995945;28;95087;-78
2023/03/24 05:47:03;;;;;;;8.40;1.50;;;;;;;;;;4979441;28;92413;-78
2023/03/24 05:49:30;;;;;;;6.40;1.30;;;;;;;;;;4970502;28;94050;-78
2023/03/24 05:51:58;;;;;;;8.18;1.70;;;;;;;;;;4981945;28;94463;-79
2023/03/24 05:54:25;;;;;;;;;;;;;;;;;;4996155;28;94778;-78
2023/03/24 05:56:59;;;;;;;9.20;1.60;;;;;;;;;;4977083;28;95190;-77
2023/03/24 05:59:30;;;;;;;7.88;1.60;;;;;;;;;;4976921;28;92579;-79
2023/03/24 06:02:09;;;;;;;11.50;1.90;;;;;;;;;;4978336;28;94419;-78
2023/03/24 06:04:56;;;;;;;8.35;1.80;;;;;;;;;;4975133;28;92919;-79
2023/03/24 06:07:25;;;;;;;8.00;1.30;;;;;;;;;;4994156;28;92655;-78
2023/03/24 06:09:56;;;;;;;9.52;1.73;;;;;;;;;;4978542;28;94593;-79
2023/03/24 06:12:23;;;;;;;7.15;1.42;;;;;;;;;;4977386;28;94921;-78
2023/03/24 06:15:02;;;;;;;9.45;1.90;;;;;;;;;;4980816;28;91355;-78
2023/03/24 06:17:30;;;;;;;10.80;1.65;;;;;;;;;;5009337;28;93503;-78
2023/03/24 06:20:04;;;;;;;7.28;1.52;;;;;;;;;;4978048;28;92312;-78
2023/03/24 06:22:35;;;;;;;10.45;1.85;;;;;;;;;;4976254;28;94494;-79
2023/03/24 06:25:05;;;;;;;9.95;1.73;;;;;;;;;;4977674;28;95137;-79
2023/03/24 06:27:34;;;;;;;7.80;1.50;;;;;;;;;;4978950;28;92478;-79
2023/03/24 06:30:02;;;;;;;10.70;1.88;;;;;;;;;;4994918;28;92538;-79
2023/03/24 06:32:29;;;;;;;8.43;1.38;;;;;;;;;;4977935;28;94901;-79
2023/03/24 06:34:56;;;;;;;11.50;2.08;;;;;;;;;;5010574;28;93154;-79
2023/03/24 06:37:49;;;;;;;8.77;1.65;;;;;;;;;;4977802;28;97220;-79
2023/03/24 06:40:16;;;;;;;7.80;1.60;;;;;;;;;;4993852;28;91513;-80
2023/03/24 06:42:53;;;;;;;10.07;1.63;;;;;;;;;;4977110;28;94220;-78
2023/03/24 06:45:20;;;;;;;6.78;1.63;;;;;;;;;;4976577;28;95701;-79
2023/03/24 06:47:47;;;;;;;9.38;1.73;;;;;;;;;;4975565;28;94983;-79
2023/03/24 06:50:14;;;;;;;9.40;1.73;;;;;;;;;;4994188;28;97741;-80
2023/03/24 06:52:40;;;;;;;11.13;1.85;;;;;;;;;;4978470;28;92658;-80
2023/03/24 06:55:09;;;;;;;13.77;2.42;;;;;;;;;;4977161;28;92575;-79
2023/03/24 06:57:36;;;;;;;10.35;2.00;;;;;;;;;;4975615;28;94609;-79
2023/03/24 07:00:38;;;;;;;8.20;1.60;;;;;;;;;;4934856;28;93898;-80
2023/03/24 07:03:21;;;;;;;9.25;1.77;;;;;;;;;;4953380;28;92443;-79
2023/03/24 07:06:08;;;;;;;8.07;1.70;;;;;;;;;;4984388;28;97836;-80
2023/03/24 07:08:35;;;;;;;8.32;1.55;;;;;;;;;;4976974;28;92600;-79
2023/03/24 07:11:06;;;;;;;8.43;1.50;;;;;;;;;;4993448;28;94320;-80
2023/03/24 07:13:33;;;;;;;9.63;1.58;;;;;;;;;;4978918;28;97963;-79
2023/03/24 07:16:05;;;;;;;8.75;1.70;;;;;;;;;;4977193;28;92353;-78
2023/03/24 07:18:33;;;;;;;9.77;1.70;;;;;;;;;;4976812;28;94641;-79
2023/03/24 07:21:03;;;;;;;7.03;1.88;;;;;;;;;;4981139;28;92496;-78
2023/03/24 07:23:31;;;;;;;7.85;1.50;;;;;;;;;;4974985;28;92499;-77
2023/03/24 07:26:03;;;;;;;9.40;1.85;;;;;;;;;;4976941;28;95388;-77
2023/03/24 07:28:52;;;;;;;11.43;2.20;;;;;;;;;;4976631;28;93798;-78
2023/03/24 07:31:37;;;;;;;8.23;1.73;;;;;;;;;;4975573;28;94367;-78
2023/03/24 07:34:07;;;;;;;7.80;1.60;;;;;;;;;;4992947;28;95430;-79
2023/03/24 07:36:36;;;;;;;7.30;1.40;;;;;;;;;;4946636;28;92863;-78
2023/03/24 07:39:05;;;;;;;15.40;1.90;;;;;;;;;;4974778;28;95256;-77
2023/03/24 07:41:34;;;;;;;7.70;1.63;;;;;;;;;;4957476;28;95749;-78
2023/03/24 07:44:07;;;;;;;8.63;1.67;;;;;;;;;;4980036;28;92726;-77
2023/03/24 07:46:47;;;;;;;6.30;1.70;;;;;;;;;;4975899;28;95613;-78
2023/03/24 07:49:14;;;;;;;6.28;1.65;;;;;;;;;;4976489;28;92542;-78
2023/03/24 07:52:06;;;;;;;7.80;1.60;;;;;;;;;;4989212;28;97378;-77
2023/03/24 07:54:43;;;;;;;8.60;1.90;;;;;;;;;;4948992;28;92444;-77
2023/03/24 07:57:20;;;;;;;7.93;1.58;;;;;;;;;;4987640;28;93293;-77
2023/03/24 07:59:46;;;;;;;;;;;;;;;;;;4955285;28;98241;-78
2023/03/24 08:02:18;;;;;;;6.47;1.70;;;;;;;;;;4957644;28;94523;-77
2023/03/24 08:04:58;;;;;;;8.23;1.40;;;;;;;;;;4987545;28;95203;-77
2023/03/24 08:07:36;;;;;;;6.57;1.42;;;;;;;;;;4989737;28;97284;-78
2023/03/24 08:10:02;;;;;;;7.60;1.65;;;;;;;;;;4957235;28;92417;-77
2023/03/24 08:12:29;;;;;;;7.65;1.63;;;;;;;;;;4957265;28;92815;-75
2023/03/24 08:14:55;;;;;;;8.65;1.35;;;;;;;;;;4988418;28;94895;-76
2023/03/24 08:17:22;;;;;;;6.97;1.40;;;;;;;;;;4956459;28;92314;-75
2023/03/24 08:19:48;;;;;;;5.97;1.55;;;;;;;;;;4953170;28;92972;-75
2023/03/24 08:22:26;;;;;;;8.60;1.60;;;;;;;;;;4957426;28;92615;-76
2023/03/24 08:24:53;;;;;;;8.52;1.73;;;;;;;;;;4953051;28;92528;-75
2023/03/24 08:27:19;;;;;;;9.32;1.80;;;;;;;;;;4954498;28;92427;-76
2023/03/24 08:29:46;;;;;;;10.05;2.00;;;;;;;;;;4980003;28;95327;-77
2023/03/24 08:32:12;;;;;;;9.25;1.58;;;;;;;;;;4958559;28;95201;-77
2023/03/24 08:34:39;;;;;;;7.28;1.50;;;;;;;;;;4961187;28;93197;-77
2023/03/24 08:37:05;;;;;;;8.27;1.60;;;;;;;;;;4939251;28;92037;-76
2023/03/24 08:39:34;;;;;;;8.43;1.50;;;;;;;;;;4960171;28;92531;-76
2023/03/24 08:42:01;;;;;;;7.20;1.52;;;;;;;;;;4953028;28;95145;-76
2023/03/24 08:44:27;;;;;;;5.53;1.40;;;;;;;;;;4946339;28;92423;-77
2023/03/24 08:46:57;;;;;;;7.53;1.75;;;;;;;;;;4967945;28;92512;-76
2023/03/24 08:49:23;;;;;;;8.60;1.70;;;;;;;;;;4953423;28;95699;-77
2023/03/24 08:51:49;;;;;;;6.72;1.70;;;;;;;;;;4957992;28;92667;-78
2023/03/24 08:54:16;;;;;;;6.63;1.60;;;;;;;;;;4954447;28;95666;-78
2023/03/24 08:56:42;;;;;;;6.60;1.67;;;;;;;;;;4971811;28;92309;-77
2023/03/24 08:59:09;;;;;;;7.97;1.77;;;;;;;;;;4954328;28;92596;-76
2023/03/24 09:01:36;;;;;;;8.45;1.80;;;;;;;;;;4955042;28;93828;-81
2023/03/24 09:04:02;;;;;;;8.48;1.60;;;;;;;;;;4947051;28;92233;-83
2023/03/24 09:06:30;;;;;;;6.85;1.77;;;;;;;;;;4952652;28;95139;-82
2023/03/24 09:08:56;;;;;;;7.93;1.75;;;;;;;;;;4955715;28;93032;-82
2023/03/24 09:11:23;;;;;;;12.10;1.80;;;;;;;;;;4961748;28;91623;-82
2023/03/24 09:13:50;;;;;;;6.60;1.77;;;;;;;;;;4963633;28;93800;-83
2023/03/24 09:16:16;;;;;;;8.35;1.80;;;;;;;;;;4959360;28;93407;-84
2023/03/24 09:18:43;;;;;;;7.60;1.60;;;;;;;;;;4962579;28;95425;-81
2023/03/24 09:21:10;;;;;;;6.25;1.70;;;;;;;;;;4972872;28;95340;-82
2023/03/24 09:23:36;;;;;;;6.85;1.50;;;;;;;;;;4950044;28;92309;-82
2023/03/24 09:26:03;;;;;;;5.63;1.50;;;;;;;;;;4961376;28;92449;-82
2023/03/24 09:28:30;;;;;;;7.35;1.70;;;;;;;;;;4954085;28;94556;-81
2023/03/24 09:30:57;;;;;;;7.53;1.58;;;;;;;;;;4961113;28;92588;-82
2023/03/24 09:33:24;;;;;;;8.18;1.50;;;;;;;;;;4945361;28;94150;-81
2023/03/24 09:35:54;;;;;;;6.75;1.58;;;;;;;;;;4982994;28;91682;-82
2023/03/24 09:38:25;;;;;;;5.50;1.63;;;;;;;;;;4961064;28;92627;-82
2023/03/24 09:40:56;;;;;;;5.55;1.55;;;;;;;;;;4961299;28;93061;-82
2023/03/24 09:43:29;;;;;;;4.82;1.42;;;;;;;;;;4966004;28;94893;-82
2023/03/24 09:45:56;;;;;;;5.65;1.40;;;;;;;;;;4962263;28;94766;-81
2023/03/24 09:48:32;;;;;;;6.32;1.30;;;;;;;;;;4961326;28;93145;-82
2023/03/24 09:51:01;;;;;;;6.55;1.38;;;;;;;;;;4976174;28;92292;-82
2023/03/24 09:53:36;;;;;;;4.63;1.40;;;;;;;;;;4960288;28;92435;-83
2023/03/24 09:56:08;;;;;;;4.20;1.50;;;;;;;;;;4964364;28;92442;-81
2023/03/24 09:58:35;;;;;;;4.53;1.20;;;;;;;;;;4952052;28;93062;-80
2023/03/24 10:01:01;;;;;;;5.35;1.40;;;;;;;;;;4953401;28;91968;-81
2023/03/24 10:03:28;;;;;;;6.55;1.40;;;;;;;;;;4948868;28;92363;-82
2023/03/24 10:06:05;;;;;;;7.20;1.70;;;;;;;;;;4949993;28;92719;-81
2023/03/24 10:08:35;;;;;;;10.18;1.58;;;;;;;;;;4951767;28;95356;-80
2023/03/24 10:11:02;;;;;;;6.18;1.60;;;;;;;;;;4955543;28;92273;-80
2023/03/24 10:13:35;;;;;;;5.55;1.48;;;;;;;;;;4946367;28;95218;-82
2023/03/24 10:16:14;;;;;;;8.00;1.75;;;;;;;;;;4940878;28;93254;-81
2023/03/24 10:18:58;;;;;;;7.22;1.55;;;;;;;;;;4960442;28;92694;-81
2023/03/24 10:21:26;;;;;;;7.70;1.60;;;;;;;;;;4949090;28;94268;-82
2023/03/24 10:23:53;;;;;;;6.28;1.50;;;;;;;;;;4955962;28;92379;-80
2023/03/24 10:26:22;;;;;;;5.45;1.30;;;;;;;;;;4982258;28;95034;-81
2023/03/24 10:29:07;;;;;;;6.72;1.75;;;;;;;;;;4958789;28;92608;-80
2023/03/24 10:31:35;;;;;;;5.15;1.38;;;;;;;;;;4948586;28;92349;-80
2023/03/24 10:34:02;;;;;;;4.57;1.30;;;;;;;;;;4958756;28;94458;-81
2023/03/24 10:36:29;;;;;;;6.65;1.45;;;;;;;;;;4974080;28;92765;-80
2023/03/24 10:38:56;;;;;;;6.68;1.50;;;;;;;;;;4958611;28;94807;-81
2023/03/24 10:41:27;;;;;;;9.55;1.77;;;;;;;;;;4960610;28;92449;-80
2023/03/24 10:43:55;;;;;;;9.38;1.85;;;;;;;;;;4960004;28;92298;-81
2023/03/24 10:46:26;;;;;;;6.72;1.63;;;;;;;;;;4945367;28;94712;-80
2023/03/24 10:48:53;;;;;;;6.00;1.60;;;;;;;;;;4954327;28;92675;-81
2023/03/24 10:51:25;;;;;;;6.90;1.30;;;;;;;;;;4951726;28;91629;-81
2023/03/24 10:54:09;;;;;;;6.82;1.80;;;;;;;;;;4945969;28;97375;-81
2023/03/24 10:56:40;;;;;;;7.50;1.95;;;;;;;;;;4947997;28;93440;-81
2023/03/24 10:59:33;;;;;;;5.63;1.60;;;;;;;;;;4946323;28;94897;-81
2023/03/24 11:02:08;;;;;;;5.63;1.40;;;;;;;;;;4941117;28;99068;-80
2023/03/24 11:04:43;;;;;;;5.85;1.55;;;;;;;;;;4962659;28;93265;-80
2023/03/24 11:07:17;;;;;;;6.65;1.40;;;;;;;;;;5010704;28;94437;-81
2023/03/24 11:09:45;;;;;;;4.95;1.60;;;;;;;;;;4973175;28;92690;-82
2023/03/24 11:12:11;;;;;;;;;;;;;;;;;;4961484;28;92355;-83
2023/03/24 11:14:43;;;;;;;7.45;1.90;;;;;;;;;;4991085;28;114756;-82
2023/03/24 11:17:11;;;;;;;7.75;1.60;;;;;;;;;;4981864;28;94140;-82
2023/03/24 11:19:38;;;;;;;7.38;1.63;;;;;;;;;;4974230;28;93641;-84
2023/03/24 11:22:06;;;;;;;6.65;1.60;;;;;;;;;;4972401;28;92186;-82
2023/03/24 11:24:38;;;;;;;5.53;1.60;;;;;;;;;;4977433;28;95506;-83
2023/03/24 11:27:04;;;;;;;5.93;1.35;;;;;;;;;;4983584;28;92301;-82
2023/03/24 11:29:32;;;;;;;5.05;1.30;;;;;;;;;;4973042;28;93637;-82
2023/03/24 11:32:00;;;;;;;7.15;1.63;;;;;;;;;;4985259;28;93473;-84
2023/03/24 11:34:33;;;;;;;5.25;1.50;;;;;;;;;;4990292;28;92449;-83
2023/03/24 11:37:17;;;;;;;5.30;1.50;;;;;;;;;;4993920;28;92616;-79
2023/03/24 11:40:05;;;;;;;5.15;1.60;;;;;;;;;;4988202;28;92641;-85
2023/03/24 11:42:32;;;;;;;7.05;1.50;;;;;;;;;;4962471;28;94917;-83
2023/03/24 11:44:59;;;;;;;3.88;1.38;;;;;;;;;;4979683;28;92667;-83
2023/03/24 11:47:32;;;;;;;5.10;1.45;;;;;;;;;;4982916;28;92130;-83
2023/03/24 11:50:07;;;;;;;7.57;1.50;;;;;;;;;;4993388;28;95095;-83
2023/03/24 11:52:49;;;;;;;5.90;1.52;;;;;;;;;;4980471;28;93789;-84
2023/03/24 11:55:36;;;;;;;4.97;1.20;;;;;;;;;;4973315;28;92428;-84
2023/03/24 11:58:02;;;;;;;5.13;1.40;;;;;;;;;;4969684;28;97159;-84
2023/03/24 12:00:32;;;;;;;5.05;1.48;;;;;;;;;;4981726;28;92778;-83
2023/03/24 12:03:19;;;;;;;6.65;1.50;;;;;;;;;;4981810;28;92459;-84
2023/03/24 12:05:57;;;;;;;5.72;1.50;;;;;;;;;;4993089;28;94385;-84
2023/03/24 12:08:42;;;;;;;5.57;1.40;;;;;;;;;;4978870;28;92175;-84
2023/03/24 12:11:27;;;;;;;6.15;1.58;;;;;;;;;;4975982;28;92444;-86
2023/03/24 12:13:56;;;;;;;4.57;1.50;;;;;;;;;;4978199;28;92045;-86
2023/03/24 12:16:37;;;;;;;4.68;1.23;;;;;;;;;;4978566;28;94862;-86
2023/03/24 12:19:24;;;;;;;5.88;1.42;;;;;;;;;;4985004;28;92976;-85
2023/03/24 12:21:51;;;;;;;4.97;1.30;;;;;;;;;;4976991;28;94473;-86
2023/03/24 12:24:27;;;;;;;6.43;1.50;;;;;;;;;;4988414;28;92384;-87
2023/03/24 12:26:56;;;;;;;8.43;1.73;;;;;;;;;;4974878;28;92728;-85
2023/03/24 12:29:23;;;;;;;5.15;1.30;;;;;;;;;;4986124;28;92355;-85
2023/03/24 12:31:58;;;;;;;3.72;1.27;;;;;;;;;;4978057;28;92586;-85
2023/03/24 12:34:43;;;;;;;4.32;1.20;;;;;;;;;;4985960;28;92069;-85
2023/03/24 12:37:15;;;;;;;6.05;1.50;;;;;;;;;;5010337;28;92720;-79
2023/03/24 12:39:49;;;;;;;4.93;1.40;;;;;;;;;;4987076;28;92823;-80
2023/03/24 12:42:18;;;;;;;7.60;1.63;;;;;;;;;;4976620;28;94693;-80
2023/03/24 12:45:07;;;;;;;8.32;1.30;;;;;;;;;;4980664;28;94799;-79
2023/03/24 12:47:40;;;;;;;9.10;1.65;;;;;;;;;;4979501;28;93444;-77
2023/03/24 12:50:07;;;;;;;7.57;1.60;;;;;;;;;;4974284;28;92386;-79
2023/03/24 12:52:44;;;;;;;11.60;1.92;;;;;;;;;;4974804;28;92919;-78
2023/03/24 12:55:16;;;;;;;13.38;1.90;;;;;;;;;;4975260;28;94302;-80
2023/03/24 12:57:47;;;;;;;8.65;1.42;;;;;;;;;;4981849;28;92530;-79
2023/03/24 13:00:16;;;;;;;7.65;1.70;;;;;;;;;;4960985;28;96177;-78
2023/03/24 13:02:50;;;;;;;12.68;1.70;;;;;;;;;;4980657;28;92627;-78
2023/03/24 13:05:16;;;;;;;;;;;;;;;;;;4976611;28;92709;-79
2023/03/24 13:07:46;;;;;;;6.13;1.58;;;;;;;;;;5007141;28;95292;-79
2023/03/24 13:10:14;;;;;;;10.35;1.60;;;;;;;;;;4991686;28;92276;-79
2023/03/24 13:12:44;;;;;;;7.00;1.67;;;;;;;;;;4981994;28;92812;-79
2023/03/24 13:15:11;;;;;;;5.00;1.20;;;;;;;;;;4971293;28;92789;-78
2023/03/24 13:17:49;;;;;;;7.43;1.40;;;;;;;;;;4967940;28;92317;-78
2023/03/24 13:20:21;;;;;;;6.22;1.50;;;;;;;;;;4986440;28;93165;-79
2023/03/24 13:22:48;;;;;;;9.15;1.38;;;;;;;;;;4984735;28;92438;-79
2023/03/24 13:25:25;;;;;;;5.82;1.50;;;;;;;;;;4982297;28;92397;-77
2023/03/24 13:27:53;;;;;;;6.80;1.38;;;;;;;;;;4974001;28;97313;-76
2023/03/24 13:30:25;;;;;;;6.97;1.75;;;;;;;;;;4972978;28;92056;-78
2023/03/24 13:32:54;;;;;;;7.50;1.30;;;;;;;;;;4973515;28;95817;-79
2023/03/24 13:35:26;;;;;;;7.32;1.20;;;;;;;;;;4982077;28;92945;-79
2023/03/24 13:37:56;;;;;;;7.03;1.60;;;;;;;;;;4992161;28;93755;-79
2023/03/24 13:40:27;;;;;;;6.10;1.35;;;;;;;;;;4981755;28;92241;-79
2023/03/24 13:42:55;;;;;;;9.40;1.63;;;;;;;;;;4974691;28;92393;-79
2023/03/24 13:45:24;;;;;;;6.35;1.48;;;;;;;;;;4966024;28;92495;-79
2023/03/24 13:48:01;;;;;;;4.75;1.20;;;;;;;;;;4968042;28;93154;-81
2023/03/24 13:50:30;;;;;;;14.88;1.70;;;;;;;;;;4978077;28;91692;-79
2023/03/24 13:52:59;;;;;;;5.50;1.40;;;;;;;;;;4981332;28;92639;-79
2023/03/24 13:55:27;;;;;;;4.25;1.40;;;;;;;;;;4985958;28;92937;-79
2023/03/24 13:57:59;;;;;;;7.05;1.55;;;;;;;;;;4978529;28;94642;-80
2023/03/24 14:00:26;;;;;;;6.45;1.40;;;;;;;;;;4979660;28;94082;-80
2023/03/24 14:03:12;;;;;;;4.82;1.15;;;;;;;;;;4982924;28;93630;-80
2023/03/24 14:05:44;;;;;;;7.03;1.40;;;;;;;;;;4979432;28;94699;-81
2023/03/24 14:08:13;;;;;;;4.55;1.20;;;;;;;;;;5018316;28;95143;-79
2023/03/24 14:10:46;;;;;;;6.00;1.50;;;;;;;;;;4980292;28;92026;-79
2023/03/24 14:13:13;;;;;;;6.60;1.50;;;;;;;;;;4986106;28;94199;-79
2023/03/24 14:15:48;;;;;;;5.13;1.35;;;;;;;;;;4972261;28;91946;-79
2023/03/24 14:18:24;;;;;;;6.35;1.20;;;;;;;;;;4967952;28;92770;-78
2023/03/24 14:21:01;;;;;;;3.17;1.25;;;;;;;;;;4960830;28;93382;-79
2023/03/24 14:23:44;;;;;;;3.28;1.13;;;;;;;;;;4968304;28;96256;-79
2023/03/24 14:26:11;;;;;;;12.10;1.30;;;;;;;;;;4978973;28;92494;-80
2023/03/24 14:28:37;;;;;;;6.57;1.00;;;;;;;;;;4967495;28;93611;-78
2023/03/24 14:31:25;;;;;;;4.10;1.10;;;;;;;;;;4976630;28;92595;-80
2023/03/24 14:33:52;;;;;;;4.28;1.10;;;;;;;;;;4974934;28;98017;-79
2023/03/24 14:36:30;;;;;;;4.72;1.30;;;;;;;;;;4978748;28;95042;-78
2023/03/24 14:39:05;;;;;;;3.78;1.23;;;;;;;;;;4962578;28;95409;-79
2023/03/24 14:41:37;;;;;;;2.15;0.90;;;;;;;;;;4979087;28;92483;-79
2023/03/24 14:44:04;;;;;;;5.65;1.20;;;;;;;;;;4965374;28;92732;-79
2023/03/24 14:46:33;;;;;;;2.97;1.00;;;;;;;;;;4963897;28;92489;-79
2023/03/24 14:49:14;;;;;;;4.35;1.02;;;;;;;;;;4969279;28;94799;-80
2023/03/24 14:51:59;;;;;;;4.03;1.10;;;;;;;;;;4959261;28;92878;-78
2023/03/24 14:54:28;;;;;;;3.30;1.10;;;;;;;;;;4977571;28;92431;-79
2023/03/24 14:56:56;;;;;;;3.47;1.15;;;;;;;;;;4963551;28;92555;-77
2023/03/24 14:59:35;;;;;;;2.35;1.23;;;;;;;;;;4978910;28;92080;-79
2023/03/24 15:02:22;;;;;;;3.25;1.20;;;;;;;;;;4965007;28;92507;-79
2023/03/24 15:05:08;;;;;;;5.75;1.00;;;;;;;;;;4966177;28;92921;-79
2023/03/24 15:07:35;;;;;;;2.90;1.00;;;;;;;;;;4976383;28;92059;-78
2023/03/24 15:10:01;;;;;;;2.60;1.00;;;;;;;;;;4973658;28;94099;-80
2023/03/24 15:12:27;;;;;;;4.47;1.10;;;;;;;;;;4984199;28;92352;-78
2023/03/24 15:14:54;;;;;;;4.40;1.10;;;;;;;;;;4980771;28;94530;-79